Terminal Aerodrome Forecast
Issued by NWS Melbourne, FL

Home | Current Version | Previous Version | Text Only | Print | Product List | Glossary On
Versions: 1 2 3 4 5 6 7 8 9 10 11 12 13 14 15 16 17 18
000
FTUS42 KMLB 020538
TAFVRB
TAF
KVRB 020538Z 0206/0306 11006KT P6SM SCT250
     FM020900 07003KT 5SM BR BKN005
      TEMPO 0210/0213 1SM MIFG BKN002
     FM021400 04005KT P6SM BKN015
     FM021800 05009KT P6SM SCT025
     FM030000 06005KT P6SM FEW025 BKN250=

USA.gov is the U.S. government's official web portal to all federal, state and local government web resources and services.